sensor_id;sensor_type;location;lat;lon;timestamp;P1;durP1;ratioP1;P2;durP2;ratioP2
65174;SDS011;51761;42.126;24.752;2023-08-01T00:00:04;10.40;;;5.47;;
65174;SDS011;51761;42.126;24.752;2023-08-01T00:02:32;9.60;;;5.80;;
65174;SDS011;51761;42.126;24.752;2023-08-01T00:04:58;8.52;;;6.25;;
65174;SDS011;51761;42.126;24.752;2023-08-01T00:07:23;8.80;;;5.57;;
65174;SDS011;51761;42.126;24.752;2023-08-01T00:09:51;7.82;;;5.50;;
65174;SDS011;51761;42.126;24.752;2023-08-01T00:12:16;10.00;;;5.30;;
65174;SDS011;51761;42.126;24.752;2023-08-01T00:14:42;6.97;;;5.30;;
65174;SDS011;51761;42.126;24.752;2023-08-01T00:17:07;8.25;;;4.82;;
65174;SDS011;51761;42.126;24.752;2023-08-01T00:19:33;12.95;;;5.50;;
65174;SDS011;51761;42.126;24.752;2023-08-01T00:21:58;8.43;;;5.35;;
65174;SDS011;51761;42.126;24.752;2023-08-01T00:24:24;7.45;;;5.53;;
65174;SDS011;51761;42.126;24.752;2023-08-01T00:26:49;8.25;;;5.00;;
65174;SDS011;51761;42.126;24.752;2023-08-01T00:29:15;7.60;;;5.15;;
65174;SDS011;51761;42.126;24.752;2023-08-01T00:31:40;10.40;;;5.22;;
65174;SDS011;51761;42.126;24.752;2023-08-01T00:34:06;12.65;;;5.05;;
65174;SDS011;51761;42.126;24.752;2023-08-01T00:36:31;7.95;;;5.32;;
65174;SDS011;51761;42.126;24.752;2023-08-01T00:38:57;7.72;;;5.32;;
65174;SDS011;51761;42.126;24.752;2023-08-01T00:41:23;8.35;;;5.22;;
65174;SDS011;51761;42.126;24.752;2023-08-01T00:43:48;7.13;;;5.00;;
65174;SDS011;51761;42.126;24.752;2023-08-01T00:46:14;7.18;;;4.40;;
65174;SDS011;51761;42.126;24.752;2023-08-01T00:48:39;8.45;;;4.60;;
65174;SDS011;51761;42.126;24.752;2023-08-01T00:51:05;8.75;;;5.38;;
65174;SDS011;51761;42.126;24.752;2023-08-01T00:53:33;6.28;;;4.50;;
65174;SDS011;51761;42.126;24.752;2023-08-01T00:56:00;6.55;;;4.50;;
65174;SDS011;51761;42.126;24.752;2023-08-01T00:58:26;7.78;;;4.65;;
65174;SDS011;51761;42.126;24.752;2023-08-01T01:00:51;6.72;;;5.15;;
65174;SDS011;51761;42.126;24.752;2023-08-01T01:03:17;5.85;;;4.65;;
65174;SDS011;51761;42.126;24.752;2023-08-01T01:05:47;7.97;;;4.45;;
65174;SDS011;51761;42.126;24.752;2023-08-01T01:08:18;10.10;;;4.82;;
65174;SDS011;51761;42.126;24.752;2023-08-01T01:10:44;6.43;;;4.57;;
65174;SDS011;51761;42.126;24.752;2023-08-01T01:13:10;6.97;;;5.20;;
65174;SDS011;51761;42.126;24.752;2023-08-01T01:15:35;6.20;;;4.20;;
65174;SDS011;51761;42.126;24.752;2023-08-01T01:18:01;5.15;;;4.38;;
65174;SDS011;51761;42.126;24.752;2023-08-01T01:20:29;6.55;;;4.60;;
65174;SDS011;51761;42.126;24.752;2023-08-01T01:23:04;7.05;;;4.88;;
65174;SDS011;51761;42.126;24.752;2023-08-01T01:25:31;6.85;;;4.80;;
65174;SDS011;51761;42.126;24.752;2023-08-01T01:27:58;6.88;;;4.80;;
65174;SDS011;51761;42.126;24.752;2023-08-01T01:30:24;7.80;;;4.80;;
65174;SDS011;51761;42.126;24.752;2023-08-01T01:32:51;6.78;;;5.07;;
65174;SDS011;51761;42.126;24.752;2023-08-01T01:35:17;8.55;;;4.70;;
65174;SDS011;51761;42.126;24.752;2023-08-01T01:37:43;5.53;;;4.60;;
65174;SDS011;51761;42.126;24.752;2023-08-01T01:40:08;7.03;;;4.90;;
65174;SDS011;51761;42.126;24.752;2023-08-01T01:42:34;8.45;;;4.22;;
65174;SDS011;51761;42.126;24.752;2023-08-01T01:45:00;5.38;;;4.50;;
65174;SDS011;51761;42.126;24.752;2023-08-01T01:47:25;7.28;;;4.90;;
65174;SDS011;51761;42.126;24.752;2023-08-01T01:49:50;8.52;;;4.53;;
65174;SDS011;51761;42.126;24.752;2023-08-01T01:52:16;7.43;;;5.03;;
65174;SDS011;51761;42.126;24.752;2023-08-01T01:54:41;7.30;;;4.75;;
65174;SDS011;51761;42.126;24.752;2023-08-01T01:57:07;5.60;;;4.28;;
65174;SDS011;51761;42.126;24.752;2023-08-01T01:59:32;6.35;;;4.53;;
65174;SDS011;51761;42.126;24.752;2023-08-01T02:01:58;6.80;;;4.70;;
65174;SDS011;51761;42.126;24.752;2023-08-01T02:04:24;10.23;;;5.00;;
65174;SDS011;51761;42.126;24.752;2023-08-01T02:06:50;7.18;;;4.60;;
65174;SDS011;51761;42.126;24.752;2023-08-01T02:09:17;6.30;;;4.63;;
65174;SDS011;51761;42.126;24.752;2023-08-01T02:11:43;8.88;;;5.10;;
65174;SDS011;51761;42.126;24.752;2023-08-01T02:14:08;7.05;;;5.25;;
65174;SDS011;51761;42.126;24.752;2023-08-01T02:16:34;8.15;;;4.75;;
65174;SDS011;51761;42.126;24.752;2023-08-01T02:18:59;11.45;;;4.85;;
65174;SDS011;51761;42.126;24.752;2023-08-01T02:21:25;8.95;;;5.10;;
65174;SDS011;51761;42.126;24.752;2023-08-01T02:23:50;8.15;;;4.63;;
65174;SDS011;51761;42.126;24.752;2023-08-01T02:26:16;10.35;;;4.93;;
65174;SDS011;51761;42.126;24.752;2023-08-01T02:28:41;6.65;;;4.47;;
65174;SDS011;51761;42.126;24.752;2023-08-01T02:31:06;7.90;;;5.05;;
65174;SDS011;51761;42.126;24.752;2023-08-01T02:33:32;6.15;;;4.82;;
65174;SDS011;51761;42.126;24.752;2023-08-01T02:35:57;6.68;;;4.70;;
65174;SDS011;51761;42.126;24.752;2023-08-01T02:38:23;5.45;;;4.47;;
65174;SDS011;51761;42.126;24.752;2023-08-01T02:40:48;9.98;;;5.18;;
65174;SDS011;51761;42.126;24.752;2023-08-01T02:43:14;5.78;;;4.47;;
65174;SDS011;51761;42.126;24.752;2023-08-01T02:45:41;7.22;;;4.30;;
65174;SDS011;51761;42.126;24.752;2023-08-01T02:48:07;6.47;;;4.43;;
65174;SDS011;51761;42.126;24.752;2023-08-01T02:50:32;5.22;;;3.88;;
65174;SDS011;51761;42.126;24.752;2023-08-01T02:52:57;6.15;;;4.50;;
65174;SDS011;51761;42.126;24.752;2023-08-01T02:55:23;5.15;;;4.22;;
65174;SDS011;51761;42.126;24.752;2023-08-01T02:57:48;6.05;;;4.47;;
65174;SDS011;51761;42.126;24.752;2023-08-01T03:00:14;6.63;;;4.47;;
65174;SDS011;51761;42.126;24.752;2023-08-01T03:02:42;5.30;;;4.38;;
65174;SDS011;51761;42.126;24.752;2023-08-01T03:05:08;10.32;;;4.65;;
65174;SDS011;51761;42.126;24.752;2023-08-01T03:07:34;6.20;;;4.40;;
65174;SDS011;51761;42.126;24.752;2023-08-01T03:10:00;5.78;;;4.60;;
65174;SDS011;51761;42.126;24.752;2023-08-01T03:12:25;9.55;;;4.72;;
65174;SDS011;51761;42.126;24.752;2023-08-01T03:14:50;6.07;;;4.28;;
65174;SDS011;51761;42.126;24.752;2023-08-01T03:17:16;5.25;;;3.95;;
65174;SDS011;51761;42.126;24.752;2023-08-01T03:19:41;6.57;;;4.20;;
65174;SDS011;51761;42.126;24.752;2023-08-01T03:22:07;6.32;;;4.28;;
65174;SDS011;51761;42.126;24.752;2023-08-01T03:24:33;7.22;;;5.00;;
65174;SDS011;51761;42.126;24.752;2023-08-01T03:26:59;6.45;;;4.97;;
65174;SDS011;51761;42.126;24.752;2023-08-01T03:29:24;6.93;;;4.32;;
65174;SDS011;51761;42.126;24.752;2023-08-01T03:31:50;5.93;;;4.25;;
65174;SDS011;51761;42.126;24.752;2023-08-01T03:34:15;11.75;;;4.63;;
65174;SDS011;51761;42.126;24.752;2023-08-01T03:36:41;11.85;;;5.00;;
65174;SDS011;51761;42.126;24.752;2023-08-01T03:39:06;8.93;;;4.43;;
65174;SDS011;51761;42.126;24.752;2023-08-01T03:41:32;9.48;;;4.78;;
65174;SDS011;51761;42.126;24.752;2023-08-01T03:43:57;12.13;;;4.78;;
65174;SDS011;51761;42.126;24.752;2023-08-01T03:46:23;5.65;;;4.70;;
65174;SDS011;51761;42.126;24.752;2023-08-01T03:48:48;10.50;;;4.60;;
65174;SDS011;51761;42.126;24.752;2023-08-01T03:51:14;7.50;;;5.07;;
65174;SDS011;51761;42.126;24.752;2023-08-01T03:53:40;11.75;;;5.03;;
65174;SDS011;51761;42.126;24.752;2023-08-01T03:56:07;6.05;;;5.13;;
65174;SDS011;51761;42.126;24.752;2023-08-01T03:58:32;11.57;;;5.40;;
65174;SDS011;51761;42.126;24.752;2023-08-01T04:00:58;13.88;;;5.15;;
65174;SDS011;51761;42.126;24.752;2023-08-01T04:03:23;9.93;;;5.70;;
65174;SDS011;51761;42.126;24.752;2023-08-01T04:05:49;6.55;;;4.75;;
65174;SDS011;51761;42.126;24.752;2023-08-01T04:08:14;6.30;;;4.88;;
65174;SDS011;51761;42.126;24.752;2023-08-01T04:10:40;9.60;;;5.22;;
65174;SDS011;51761;42.126;24.752;2023-08-01T04:13:05;11.50;;;5.22;;
65174;SDS011;51761;42.126;24.752;2023-08-01T04:15:31;13.38;;;5.10;;
65174;SDS011;51761;42.126;24.752;2023-08-01T04:17:56;7.78;;;4.95;;
65174;SDS011;51761;42.126;24.752;2023-08-01T04:20:22;9.40;;;5.22;;
65174;SDS011;51761;42.126;24.752;2023-08-01T04:22:47;8.65;;;5.32;;
65174;SDS011;51761;42.126;24.752;2023-08-01T04:25:12;7.47;;;5.22;;
65174;SDS011;51761;42.126;24.752;2023-08-01T04:27:38;8.85;;;5.50;;
65174;SDS011;51761;42.126;24.752;2023-08-01T04:30:04;11.23;;;4.88;;
65174;SDS011;51761;42.126;24.752;2023-08-01T04:32:30;9.07;;;4.85;;
65174;SDS011;51761;42.126;24.752;2023-08-01T04:34:55;8.73;;;5.38;;
65174;SDS011;51761;42.126;24.752;2023-08-01T04:37:21;16.15;;;6.40;;
65174;SDS011;51761;42.126;24.752;2023-08-01T04:39:48;16.40;;;7.15;;
65174;SDS011;51761;42.126;24.752;2023-08-01T04:42:13;11.02;;;6.68;;
65174;SDS011;51761;42.126;24.752;2023-08-01T04:44:39;18.05;;;7.28;;
65174;SDS011;51761;42.126;24.752;2023-08-01T04:47:05;15.63;;;6.55;;
65174;SDS011;51761;42.126;24.752;2023-08-01T04:49:30;10.30;;;6.38;;
65174;SDS011;51761;42.126;24.752;2023-08-01T04:51:56;11.98;;;6.22;;
65174;SDS011;51761;42.126;24.752;2023-08-01T04:54:21;15.52;;;6.38;;
65174;SDS011;51761;42.126;24.752;2023-08-01T04:56:47;15.35;;;6.45;;
65174;SDS011;51761;42.126;24.752;2023-08-01T04:59:12;13.93;;;6.43;;
65174;SDS011;51761;42.126;24.752;2023-08-01T05:01:38;18.60;;;6.60;;
65174;SDS011;51761;42.126;24.752;2023-08-01T05:04:03;9.13;;;5.82;;
65174;SDS011;51761;42.126;24.752;2023-08-01T05:06:29;13.88;;;6.03;;
65174;SDS011;51761;42.126;24.752;2023-08-01T05:08:54;13.63;;;6.18;;
65174;SDS011;51761;42.126;24.752;2023-08-01T05:11:20;9.85;;;6.15;;
65174;SDS011;51761;42.126;24.752;2023-08-01T05:13:46;9.15;;;5.15;;
65174;SDS011;51761;42.126;24.752;2023-08-01T05:16:11;8.65;;;5.50;;
65174;SDS011;51761;42.126;24.752;2023-08-01T05:18:36;14.20;;;5.82;;
65174;SDS011;51761;42.126;24.752;2023-08-01T05:21:02;11.13;;;6.38;;
65174;SDS011;51761;42.126;24.752;2023-08-01T05:23:28;15.88;;;5.60;;
65174;SDS011;51761;42.126;24.752;2023-08-01T05:25:53;12.13;;;5.47;;
65174;SDS011;51761;42.126;24.752;2023-08-01T05:28:18;7.50;;;4.93;;
65174;SDS011;51761;42.126;24.752;2023-08-01T05:30:44;22.23;;;5.45;;
65174;SDS011;51761;42.126;24.752;2023-08-01T05:33:10;11.35;;;5.47;;
65174;SDS011;51761;42.126;24.752;2023-08-01T05:35:36;15.23;;;5.20;;
65174;SDS011;51761;42.126;24.752;2023-08-01T05:38:01;9.23;;;5.43;;
65174;SDS011;51761;42.126;24.752;2023-08-01T05:40:27;8.50;;;4.78;;
65174;SDS011;51761;42.126;24.752;2023-08-01T05:42:52;11.18;;;5.07;;
65174;SDS011;51761;42.126;24.752;2023-08-01T05:45:18;6.72;;;4.85;;
65174;SDS011;51761;42.126;24.752;2023-08-01T05:47:43;11.15;;;4.72;;
65174;SDS011;51761;42.126;24.752;2023-08-01T05:50:09;13.00;;;4.88;;
65174;SDS011;51761;42.126;24.752;2023-08-01T05:52:34;11.43;;;4.78;;
65174;SDS011;51761;42.126;24.752;2023-08-01T05:55:00;5.40;;;4.40;;
65174;SDS011;51761;42.126;24.752;2023-08-01T05:57:25;6.60;;;5.10;;
65174;SDS011;51761;42.126;24.752;2023-08-01T05:59:51;16.65;;;5.03;;
65174;SDS011;51761;42.126;24.752;2023-08-01T06:02:16;5.25;;;3.88;;
65174;SDS011;51761;42.126;24.752;2023-08-01T06:04:42;4.93;;;3.80;;
65174;SDS011;51761;42.126;24.752;2023-08-01T06:07:07;13.48;;;4.97;;
65174;SDS011;51761;42.126;24.752;2023-08-01T06:09:33;14.52;;;8.32;;
65174;SDS011;51761;42.126;24.752;2023-08-01T06:11:58;7.38;;;4.30;;
65174;SDS011;51761;42.126;24.752;2023-08-01T06:14:24;13.48;;;7.97;;
65174;SDS011;51761;42.126;24.752;2023-08-01T06:16:49;19.58;;;7.15;;
65174;SDS011;51761;42.126;24.752;2023-08-01T06:19:15;11.80;;;3.95;;
65174;SDS011;51761;42.126;24.752;2023-08-01T06:21:40;12.80;;;3.88;;
65174;SDS011;51761;42.126;24.752;2023-08-01T06:24:06;5.45;;;3.65;;
65174;SDS011;51761;42.126;24.752;2023-08-01T06:26:33;8.35;;;3.53;;
65174;SDS011;51761;42.126;24.752;2023-08-01T06:28:59;10.50;;;3.83;;
65174;SDS011;51761;42.126;24.752;2023-08-01T06:31:24;14.48;;;5.05;;
65174;SDS011;51761;42.126;24.752;2023-08-01T06:33:50;14.00;;;3.60;;
65174;SDS011;51761;42.126;24.752;2023-08-01T06:36:15;5.97;;;4.13;;
65174;SDS011;51761;42.126;24.752;2023-08-01T06:38:42;5.85;;;3.83;;
65174;SDS011;51761;42.126;24.752;2023-08-01T06:41:08;9.80;;;4.30;;
65174;SDS011;51761;42.126;24.752;2023-08-01T06:43:33;6.95;;;3.80;;
65174;SDS011;51761;42.126;24.752;2023-08-01T06:45:58;6.05;;;3.47;;
65174;SDS011;51761;42.126;24.752;2023-08-01T06:48:24;9.65;;;3.50;;
65174;SDS011;51761;42.126;24.752;2023-08-01T06:50:49;9.27;;;4.00;;
65174;SDS011;51761;42.126;24.752;2023-08-01T06:53:15;4.50;;;3.55;;
65174;SDS011;51761;42.126;24.752;2023-08-01T06:55:40;7.32;;;4.10;;
65174;SDS011;51761;42.126;24.752;2023-08-01T06:58:06;8.05;;;3.67;;
65174;SDS011;51761;42.126;24.752;2023-08-01T07:00:32;5.85;;;3.25;;
65174;SDS011;51761;42.126;24.752;2023-08-01T07:02:57;6.32;;;3.78;;
65174;SDS011;51761;42.126;24.752;2023-08-01T07:05:24;17.45;;;3.90;;
65174;SDS011;51761;42.126;24.752;2023-08-01T07:07:50;6.60;;;3.72;;
65174;SDS011;51761;42.126;24.752;2023-08-01T07:10:15;12.13;;;3.45;;
65174;SDS011;51761;42.126;24.752;2023-08-01T07:12:41;10.40;;;3.80;;
65174;SDS011;51761;42.126;24.752;2023-08-01T07:15:06;5.05;;;3.20;;
65174;SDS011;51761;42.126;24.752;2023-08-01T07:17:32;6.30;;;2.72;;
65174;SDS011;51761;42.126;24.752;2023-08-01T07:19:58;7.63;;;2.80;;
65174;SDS011;51761;42.126;24.752;2023-08-01T07:22:23;5.45;;;2.80;;
65174;SDS011;51761;42.126;24.752;2023-08-01T07:24:52;12.02;;;2.80;;
65174;SDS011;51761;42.126;24.752;2023-08-01T07:27:19;6.05;;;2.78;;
65174;SDS011;51761;42.126;24.752;2023-08-01T07:29:44;12.10;;;2.60;;
65174;SDS011;51761;42.126;24.752;2023-08-01T07:32:10;6.90;;;2.50;;
65174;SDS011;51761;42.126;24.752;2023-08-01T07:34:36;8.98;;;2.67;;
65174;SDS011;51761;42.126;24.752;2023-08-01T07:37:01;3.83;;;2.33;;
65174;SDS011;51761;42.126;24.752;2023-08-01T07:39:27;4.57;;;2.40;;
65174;SDS011;51761;42.126;24.752;2023-08-01T07:41:52;4.65;;;2.20;;
65174;SDS011;51761;42.126;24.752;2023-08-01T07:44:18;3.63;;;2.22;;
65174;SDS011;51761;42.126;24.752;2023-08-01T07:46:43;3.75;;;2.72;;
65174;SDS011;51761;42.126;24.752;2023-08-01T07:49:09;4.95;;;3.05;;
65174;SDS011;51761;42.126;24.752;2023-08-01T07:51:34;7.28;;;2.92;;
65174;SDS011;51761;42.126;24.752;2023-08-01T07:54:01;9.40;;;3.60;;
65174;SDS011;51761;42.126;24.752;2023-08-01T07:56:27;9.90;;;3.17;;
65174;SDS011;51761;42.126;24.752;2023-08-01T07:58:52;7.82;;;3.95;;
65174;SDS011;51761;42.126;24.752;2023-08-01T08:01:18;6.25;;;2.97;;
65174;SDS011;51761;42.126;24.752;2023-08-01T08:03:43;5.00;;;2.50;;
65174;SDS011;51761;42.126;24.752;2023-08-01T08:06:09;4.78;;;2.80;;
65174;SDS011;51761;42.126;24.752;2023-08-01T08:08:34;6.07;;;3.08;;
65174;SDS011;51761;42.126;24.752;2023-08-01T08:11:01;7.78;;;3.20;;
65174;SDS011;51761;42.126;24.752;2023-08-01T08:13:27;5.20;;;2.70;;
65174;SDS011;51761;42.126;24.752;2023-08-01T08:15:56;7.78;;;2.63;;
65174;SDS011;51761;42.126;24.752;2023-08-01T08:18:22;3.90;;;2.42;;
65174;SDS011;51761;42.126;24.752;2023-08-01T08:20:48;4.80;;;3.13;;
65174;SDS011;51761;42.126;24.752;2023-08-01T08:23:14;3.20;;;2.55;;
65174;SDS011;51761;42.126;24.752;2023-08-01T08:25:40;6.10;;;2.63;;
65174;SDS011;51761;42.126;24.752;2023-08-01T08:28:07;8.10;;;2.70;;
65174;SDS011;51761;42.126;24.752;2023-08-01T08:30:33;8.85;;;2.70;;
65174;SDS011;51761;42.126;24.752;2023-08-01T08:32:58;8.85;;;2.75;;
65174;SDS011;51761;42.126;24.752;2023-08-01T08:35:29;4.10;;;2.67;;
65174;SDS011;51761;42.126;24.752;2023-08-01T08:37:55;5.07;;;3.05;;
65174;SDS011;51761;42.126;24.752;2023-08-01T08:40:20;11.82;;;2.67;;
65174;SDS011;51761;42.126;24.752;2023-08-01T08:42:46;5.32;;;2.65;;
65174;SDS011;51761;42.126;24.752;2023-08-01T08:45:12;6.05;;;3.17;;
65174;SDS011;51761;42.126;24.752;2023-08-01T08:47:43;5.70;;;2.60;;
65174;SDS011;51761;42.126;24.752;2023-08-01T08:50:11;6.20;;;2.78;;
65174;SDS011;51761;42.126;24.752;2023-08-01T08:52:37;5.28;;;2.40;;
65174;SDS011;51761;42.126;24.752;2023-08-01T08:55:03;3.70;;;2.60;;
65174;SDS011;51761;42.126;24.752;2023-08-01T08:57:30;6.95;;;2.67;;
65174;SDS011;51761;42.126;24.752;2023-08-01T08:59:56;7.57;;;2.90;;
65174;SDS011;51761;42.126;24.752;2023-08-01T09:02:24;3.55;;;2.90;;
65174;SDS011;51761;42.126;24.752;2023-08-01T09:04:50;10.68;;;3.20;;
65174;SDS011;51761;42.126;24.752;2023-08-01T09:07:15;5.90;;;3.10;;
65174;SDS011;51761;42.126;24.752;2023-08-01T09:09:48;4.93;;;3.03;;
65174;SDS011;51761;42.126;24.752;2023-08-01T09:12:14;5.22;;;2.95;;
65174;SDS011;51761;42.126;24.752;2023-08-01T09:14:39;3.60;;;2.83;;
65174;SDS011;51761;42.126;24.752;2023-08-01T09:17:07;7.78;;;3.70;;
65174;SDS011;51761;42.126;24.752;2023-08-01T09:19:34;9.02;;;2.90;;
65174;SDS011;51761;42.126;24.752;2023-08-01T09:21:59;5.65;;;3.25;;
65174;SDS011;51761;42.126;24.752;2023-08-01T09:24:25;5.25;;;2.88;;
65174;SDS011;51761;42.126;24.752;2023-08-01T09:26:50;3.70;;;3.22;;
65174;SDS011;51761;42.126;24.752;2023-08-01T09:29:16;3.95;;;2.97;;
65174;SDS011;51761;42.126;24.752;2023-08-01T09:31:42;7.38;;;3.38;;
65174;SDS011;51761;42.126;24.752;2023-08-01T09:34:19;6.05;;;3.00;;
65174;SDS011;51761;42.126;24.752;2023-08-01T09:36:46;15.13;;;3.47;;
65174;SDS011;51761;42.126;24.752;2023-08-01T09:39:15;10.63;;;3.90;;
65174;SDS011;51761;42.126;24.752;2023-08-01T09:41:42;6.38;;;3.25;;
65174;SDS011;51761;42.126;24.752;2023-08-01T09:44:15;5.68;;;3.17;;
65174;SDS011;51761;42.126;24.752;2023-08-01T09:46:41;7.18;;;3.03;;
65174;SDS011;51761;42.126;24.752;2023-08-01T09:49:09;4.80;;;3.05;;
65174;SDS011;51761;42.126;24.752;2023-08-01T09:51:46;4.78;;;3.35;;
65174;SDS011;51761;42.126;24.752;2023-08-01T09:54:15;9.63;;;3.83;;
65174;SDS011;51761;42.126;24.752;2023-08-01T09:56:44;6.13;;;3.08;;
65174;SDS011;51761;42.126;24.752;2023-08-01T09:59:11;5.40;;;3.10;;
65174;SDS011;51761;42.126;24.752;2023-08-01T10:01:36;7.20;;;3.25;;
65174;SDS011;51761;42.126;24.752;2023-08-01T10:04:03;9.38;;;3.20;;
65174;SDS011;51761;42.126;24.752;2023-08-01T10:06:33;6.60;;;2.90;;
65174;SDS011;51761;42.126;24.752;2023-08-01T10:09:02;8.02;;;3.25;;
65174;SDS011;51761;42.126;24.752;2023-08-01T10:11:28;6.60;;;2.97;;
65174;SDS011;51761;42.126;24.752;2023-08-01T10:13:58;7.05;;;3.20;;
65174;SDS011;51761;42.126;24.752;2023-08-01T10:16:25;3.90;;;3.17;;
65174;SDS011;51761;42.126;24.752;2023-08-01T10:18:51;7.55;;;3.30;;
65174;SDS011;51761;42.126;24.752;2023-08-01T10:21:18;4.30;;;3.45;;
65174;SDS011;51761;42.126;24.752;2023-08-01T10:23:46;6.65;;;3.40;;
65174;SDS011;51761;42.126;24.752;2023-08-01T10:26:13;7.57;;;3.38;;
65174;SDS011;51761;42.126;24.752;2023-08-01T10:28:40;5.43;;;3.30;;
65174;SDS011;51761;42.126;24.752;2023-08-01T10:31:13;4.22;;;3.30;;
65174;SDS011;51761;42.126;24.752;2023-08-01T10:33:41;7.53;;;3.80;;
65174;SDS011;51761;42.126;24.752;2023-08-01T10:36:18;5.75;;;3.60;;
65174;SDS011;51761;42.126;24.752;2023-08-01T10:41:56;7.18;;;3.60;;
65174;SDS011;51761;42.126;24.752;2023-08-01T10:46:52;9.85;;;3.80;;
65174;SDS011;51761;42.126;24.752;2023-08-01T10:49:40;4.35;;;3.95;;
65174;SDS011;51761;42.126;24.752;2023-08-01T10:54:58;6.55;;;4.78;;
65174;SDS011;51761;42.126;24.752;2023-08-01T10:57:26;12.88;;;4.32;;
65174;SDS011;51761;42.126;24.752;2023-08-01T10:59:54;4.45;;;4.03;;
65174;SDS011;51761;42.126;24.752;2023-08-01T11:02:23;4.95;;;4.15;;
65174;SDS011;51761;42.126;24.752;2023-08-01T11:05:03;8.25;;;4.18;;
65174;SDS011;51761;42.126;24.752;2023-08-01T11:07:30;5.82;;;4.35;;
65174;SDS011;51761;42.126;24.752;2023-08-01T11:10:03;6.55;;;4.28;;
65174;SDS011;51761;42.126;24.752;2023-08-01T11:12:38;9.95;;;4.30;;
65174;SDS011;51761;42.126;24.752;2023-08-01T11:15:05;8.27;;;3.88;;
65174;SDS011;51761;42.126;24.752;2023-08-01T11:17:33;6.18;;;4.20;;
65174;SDS011;51761;42.126;24.752;2023-08-01T11:20:04;6.75;;;4.13;;
65174;SDS011;51761;42.126;24.752;2023-08-01T11:22:32;7.15;;;4.10;;
65174;SDS011;51761;42.126;24.752;2023-08-01T11:24:58;4.53;;;3.67;;
65174;SDS011;51761;42.126;24.752;2023-08-01T11:27:24;6.15;;;4.10;;
65174;SDS011;51761;42.126;24.752;2023-08-01T11:29:53;4.45;;;3.85;;
65174;SDS011;51761;42.126;24.752;2023-08-01T11:32:19;7.97;;;3.95;;
65174;SDS011;51761;42.126;24.752;2023-08-01T11:34:48;8.02;;;3.95;;
65174;SDS011;51761;42.126;24.752;2023-08-01T11:37:14;4.80;;;3.53;;
65174;SDS011;51761;42.126;24.752;2023-08-01T11:39:41;4.95;;;4.45;;
65174;SDS011;51761;42.126;24.752;2023-08-01T11:42:06;4.93;;;3.88;;
65174;SDS011;51761;42.126;24.752;2023-08-01T11:44:32;9.15;;;4.43;;
65174;SDS011;51761;42.126;24.752;2023-08-01T11:46:58;6.55;;;4.82;;
65174;SDS011;51761;42.126;24.752;2023-08-01T11:49:23;6.35;;;4.68;;
65174;SDS011;51761;42.126;24.752;2023-08-01T11:51:49;5.82;;;4.82;;
65174;SDS011;51761;42.126;24.752;2023-08-01T11:54:15;5.38;;;4.60;;
65174;SDS011;51761;42.126;24.752;2023-08-01T11:56:42;7.03;;;5.18;;
65174;SDS011;51761;42.126;24.752;2023-08-01T11:59:12;4.80;;;4.30;;
65174;SDS011;51761;42.126;24.752;2023-08-01T12:01:42;8.63;;;5.28;;
65174;SDS011;51761;42.126;24.752;2023-08-01T12:04:12;6.43;;;5.32;;
65174;SDS011;51761;42.126;24.752;2023-08-01T12:06:48;5.68;;;4.03;;
65174;SDS011;51761;42.126;24.752;2023-08-01T12:09:13;6.22;;;4.15;;
65174;SDS011;51761;42.126;24.752;2023-08-01T12:11:39;5.97;;;4.72;;
65174;SDS011;51761;42.126;24.752;2023-08-01T12:14:07;6.55;;;4.45;;
65174;SDS011;51761;42.126;24.752;2023-08-01T12:16:34;8.75;;;4.47;;
65174;SDS011;51761;42.126;24.752;2023-08-01T12:19:01;7.65;;;4.50;;
65174;SDS011;51761;42.126;24.752;2023-08-01T12:21:26;6.85;;;4.82;;
65174;SDS011;51761;42.126;24.752;2023-08-01T12:23:52;5.78;;;4.88;;
65174;SDS011;51761;42.126;24.752;2023-08-01T12:26:18;6.68;;;4.65;;
65174;SDS011;51761;42.126;24.752;2023-08-01T12:28:43;5.53;;;4.50;;
65174;SDS011;51761;42.126;24.752;2023-08-01T12:31:09;5.40;;;4.90;;
65174;SDS011;51761;42.126;24.752;2023-08-01T12:33:34;6.13;;;4.75;;
65174;SDS011;51761;42.126;24.752;2023-08-01T12:36:00;8.38;;;4.38;;
65174;SDS011;51761;42.126;24.752;2023-08-01T12:38:26;6.82;;;4.72;;
65174;SDS011;51761;42.126;24.752;2023-08-01T12:40:51;6.85;;;5.00;;
65174;SDS011;51761;42.126;24.752;2023-08-01T12:43:17;5.18;;;4.68;;
65174;SDS011;51761;42.126;24.752;2023-08-01T12:45:42;10.55;;;5.03;;
65174;SDS011;51761;42.126;24.752;2023-08-01T12:48:08;5.38;;;4.53;;
65174;SDS011;51761;42.126;24.752;2023-08-01T12:50:34;7.05;;;4.80;;
65174;SDS011;51761;42.126;24.752;2023-08-01T12:52:59;7.03;;;4.38;;
65174;SDS011;51761;42.126;24.752;2023-08-01T12:55:25;5.47;;;4.90;;
65174;SDS011;51761;42.126;24.752;2023-08-01T12:57:50;5.72;;;4.78;;
65174;SDS011;51761;42.126;24.752;2023-08-01T13:00:16;5.57;;;4.85;;
65174;SDS011;51761;42.126;24.752;2023-08-01T13:02:42;6.13;;;5.13;;
65174;SDS011;51761;42.126;24.752;2023-08-01T13:05:08;5.47;;;4.82;;
65174;SDS011;51761;42.126;24.752;2023-08-01T13:07:34;5.63;;;5.00;;
65174;SDS011;51761;42.126;24.752;2023-08-01T13:10:00;5.25;;;4.75;;
65174;SDS011;51761;42.126;24.752;2023-08-01T13:12:26;5.10;;;4.43;;
65174;SDS011;51761;42.126;24.752;2023-08-01T13:14:51;6.97;;;4.88;;
65174;SDS011;51761;42.126;24.752;2023-08-01T13:17:17;7.47;;;5.10;;
65174;SDS011;51761;42.126;24.752;2023-08-01T13:19:43;7.63;;;5.05;;
65174;SDS011;51761;42.126;24.752;2023-08-01T13:22:08;6.53;;;5.05;;
65174;SDS011;51761;42.126;24.752;2023-08-01T13:24:34;5.38;;;4.85;;
65174;SDS011;51761;42.126;24.752;2023-08-01T13:27:00;7.43;;;4.82;;
65174;SDS011;51761;42.126;24.752;2023-08-01T13:29:25;5.80;;;5.20;;
65174;SDS011;51761;42.126;24.752;2023-08-01T13:31:51;6.93;;;5.78;;
65174;SDS011;51761;42.126;24.752;2023-08-01T13:34:16;6.65;;;5.30;;
65174;SDS011;51761;42.126;24.752;2023-08-01T13:36:42;5.15;;;4.50;;
65174;SDS011;51761;42.126;24.752;2023-08-01T13:39:08;5.78;;;4.88;;
65174;SDS011;51761;42.126;24.752;2023-08-01T13:41:33;5.43;;;4.93;;
65174;SDS011;51761;42.126;24.752;2023-08-01T13:43:59;5.45;;;4.85;;
65174;SDS011;51761;42.126;24.752;2023-08-01T13:46:24;21.75;;;15.13;;
65174;SDS011;51761;42.126;24.752;2023-08-01T13:48:50;9.73;;;5.85;;
65174;SDS011;51761;42.126;24.752;2023-08-01T13:51:15;9.98;;;8.70;;
65174;SDS011;51761;42.126;24.752;2023-08-01T13:53:42;7.13;;;4.72;;
65174;SDS011;51761;42.126;24.752;2023-08-01T13:56:08;6.93;;;4.93;;
65174;SDS011;51761;42.126;24.752;2023-08-01T13:58:37;5.22;;;4.43;;
65174;SDS011;51761;42.126;24.752;2023-08-01T14:01:08;7.13;;;5.15;;
65174;SDS011;51761;42.126;24.752;2023-08-01T14:03:38;7.72;;;5.35;;
65174;SDS011;51761;42.126;24.752;2023-08-01T14:06:05;7.53;;;5.78;;
65174;SDS011;51761;42.126;24.752;2023-08-01T14:08:32;8.93;;;5.53;;
65174;SDS011;51761;42.126;24.752;2023-08-01T14:10:58;6.70;;;5.90;;
65174;SDS011;51761;42.126;24.752;2023-08-01T14:13:23;7.03;;;6.10;;
65174;SDS011;51761;42.126;24.752;2023-08-01T14:15:49;6.45;;;5.85;;
65174;SDS011;51761;42.126;24.752;2023-08-01T14:18:14;9.43;;;5.70;;
65174;SDS011;51761;42.126;24.752;2023-08-01T14:20:40;6.05;;;5.40;;
65174;SDS011;51761;42.126;24.752;2023-08-01T14:23:05;6.53;;;5.82;;
65174;SDS011;51761;42.126;24.752;2023-08-01T14:25:31;7.25;;;5.72;;
65174;SDS011;51761;42.126;24.752;2023-08-01T14:27:56;6.20;;;5.47;;
65174;SDS011;51761;42.126;24.752;2023-08-01T14:30:22;6.70;;;5.88;;
65174;SDS011;51761;42.126;24.752;2023-08-01T14:32:47;7.88;;;5.72;;